createdAt,value
2019-02-16T00:03:39.931Z,43.41
2019-02-16T00:07:24.823Z,42.86
2019-02-16T00:11:09.877Z,42.85
2019-02-16T00:14:54.894Z,42.97
2019-02-16T00:18:39.484Z,43.54
2019-02-16T00:22:24.100Z,44.01
2019-02-16T00:26:08.736Z,44.08
2019-02-16T00:29:53.671Z,44.40
2019-02-16T00:33:38.657Z,44.85
2019-02-16T00:37:23.262Z,45.19
2019-02-16T00:41:07.918Z,44.89
2019-02-16T00:44:53.208Z,44.28
2019-02-16T00:48:37.900Z,44.96
2019-02-16T00:52:22.498Z,44.78
2019-02-16T00:56:00.374Z,43.88
2019-02-16T00:59:45.242Z,43.59
2019-02-16T01:03:29.824Z,43.95
2019-02-16T01:07:14.842Z,44.43
2019-02-16T01:10:59.774Z,44.30
2019-02-16T01:14:44.381Z,44.67
2019-02-16T01:18:28.983Z,45.73
2019-02-16T01:22:13.568Z,44.68
2019-02-16T01:25:58.189Z,45.12
2019-02-16T01:29:43.144Z,44.98
2019-02-16T01:33:28.146Z,44.65
2019-02-16T01:37:12.751Z,44.94
2019-02-16T01:40:57.424Z,44.80
2019-02-16T01:44:42.088Z,45.26
2019-02-16T01:48:27.005Z,45.12
2019-02-16T01:52:11.664Z,45.37
2019-02-16T01:55:56.607Z,46.04
2019-02-16T01:59:34.153Z,46.22
2019-02-16T02:03:19.107Z,46.08
2019-02-16T02:06:56.885Z,46.36
2019-02-16T02:10:41.821Z,46.20
2019-02-16T02:14:26.523Z,46.60
2019-02-16T02:18:11.216Z,46.82
2019-02-16T02:21:55.841Z,47.07
2019-02-16T02:25:40.810Z,47.28
2019-02-16T02:29:25.450Z,46.43
2019-02-16T02:33:10.098Z,46.69
2019-02-16T02:36:55.026Z,47.46
2019-02-16T02:40:39.659Z,46.92
2019-02-16T02:44:24.283Z,47.10
2019-02-16T02:48:09.293Z,47.93
2019-02-16T02:51:53.917Z,47.66
2019-02-16T02:55:38.587Z,48.46
2019-02-16T02:59:24.153Z,47.87
2019-02-16T03:03:08.796Z,48.64
2019-02-16T03:06:46.540Z,48.18
2019-02-16T03:10:31.189Z,49.04
2019-02-16T03:14:16.377Z,49.28
2019-02-16T03:18:01.033Z,49.09
2019-02-16T03:21:45.686Z,49.28
2019-02-16T03:25:30.644Z,49.01
2019-02-16T03:29:53.462Z,48.78
2019-02-16T03:33:59.917Z,48.81
2019-02-16T03:38:22.673Z,48.99
2019-02-16T03:42:07.336Z,49.46
2019-02-16T03:45:51.987Z,49.97
2019-02-16T03:49:36.940Z,50.06
2019-02-16T03:53:21.598Z,49.81
2019-02-16T03:57:06.610Z,49.88
2019-02-16T04:00:51.299Z,49.82
2019-02-16T04:04:35.969Z,49.68
2019-02-16T04:08:12.840Z,49.50
2019-02-16T04:11:57.479Z,49.85
2019-02-16T04:15:42.199Z,49.30
2019-02-16T04:19:26.858Z,49.76
2019-02-16T04:23:11.861Z,49.73
2019-02-16T04:26:57.006Z,50.07
2019-02-16T04:30:41.649Z,50.74
2019-02-16T04:34:27.009Z,49.84
2019-02-16T04:38:11.634Z,50.18
2019-02-16T04:41:56.271Z,50.51
2019-02-16T04:45:40.910Z,50.66
2019-02-16T04:49:25.521Z,51.52
2019-02-16T04:53:10.104Z,51.64
2019-02-16T04:56:54.734Z,52.43
2019-02-16T05:00:31.688Z,51.39
2019-02-16T05:04:16.298Z,51.52
2019-02-16T05:08:01.255Z,51.57
2019-02-16T05:11:45.887Z,51.57
2019-02-16T05:15:30.517Z,51.83
2019-02-16T05:19:15.133Z,52.35
2019-02-16T05:22:59.754Z,52.17
2019-02-16T05:26:44.382Z,51.75
2019-02-16T05:30:28.989Z,52.09
2019-02-16T05:34:13.591Z,52.25
2019-02-16T05:37:58.188Z,51.82
2019-02-16T05:41:43.136Z,52.03
2019-02-16T05:45:28.018Z,51.89
2019-02-16T05:49:12.643Z,52.87
2019-02-16T05:52:57.258Z,52.67
2019-02-16T05:56:41.937Z,52.14
2019-02-16T06:00:20.656Z,52.13
2019-02-16T06:04:05.240Z,52.25
2019-02-16T06:07:50.220Z,52.07
2019-02-16T06:11:34.837Z,52.21
2019-02-16T06:15:19.459Z,52.24
2019-02-16T06:19:04.405Z,52.84
2019-02-16T06:26:34.330Z,53.11
2019-02-16T06:30:29.285Z,53.26
2019-02-16T06:34:17.251Z,52.99
2019-02-16T06:38:01.885Z,52.60
2019-02-16T06:41:46.508Z,52.89
2019-02-16T06:45:31.307Z,53.13
2019-02-16T06:49:16.148Z,53.74
2019-02-16T06:57:10.852Z,53.00
2019-02-16T07:00:47.593Z,53.30
2019-02-16T07:04:32.219Z,53.48
2019-02-16T07:08:16.854Z,53.43
2019-02-16T07:12:01.447Z,53.57
2019-02-16T07:19:56.346Z,52.61
2019-02-16T07:23:40.948Z,53.71
2019-02-16T07:27:25.612Z,53.01
2019-02-16T07:31:10.482Z,53.38
2019-02-16T07:34:55.088Z,53.73
2019-02-16T07:38:39.678Z,53.13
2019-02-16T07:46:29.806Z,53.13
2019-02-16T07:50:33.228Z,53.40
2019-02-16T07:54:32.431Z,53.32
2019-02-16T07:58:22.415Z,52.80
2019-02-16T08:02:06.502Z,52.62
2019-02-16T08:06:09.935Z,52.90
2019-02-16T08:10:26.019Z,52.46
2019-02-16T08:14:19.664Z,52.41
2019-02-16T08:18:13.182Z,52.07
2019-02-16T08:22:16.983Z,51.93
2019-02-16T08:26:20.456Z,51.49
2019-02-16T08:30:15.116Z,51.41
2019-02-16T08:34:18.552Z,51.51
2019-02-16T08:38:22.034Z,51.05
2019-02-16T08:42:25.568Z,51.50
2019-02-16T08:46:29.106Z,51.11
2019-02-16T08:50:32.567Z,50.96
2019-02-16T08:54:36.071Z,50.91
2019-02-16T08:58:39.616Z,50.69
2019-02-16T09:02:35.407Z,50.52
2019-02-16T09:10:59.468Z,50.09
2019-02-16T09:15:02.920Z,49.59
2019-02-16T09:19:06.425Z,49.31
2019-02-16T09:27:10.621Z,48.65
2019-02-16T09:31:14.574Z,47.75
2019-02-16T09:35:18.089Z,47.10
2019-02-16T09:39:44.458Z,46.74
2019-02-16T09:43:48.458Z,45.80
2019-02-16T09:47:41.581Z,44.79
2019-02-16T09:51:45.483Z,41.93
2019-02-16T09:55:48.941Z,37.13
2019-02-16T09:59:43.698Z,32.83
2019-02-16T10:03:47.185Z,30.60
2019-02-16T10:07:50.657Z,31.39
2019-02-16T10:11:42.552Z,31.37
2019-02-16T10:16:06.822Z,29.82
2019-02-16T10:20:10.299Z,27.74
2019-02-16T10:24:17.887Z,26.95
2019-02-16T10:28:13.253Z,25.91
2019-02-16T10:32:16.793Z,25.38
2019-02-16T10:36:20.218Z,26.77
2019-02-16T10:40:10.604Z,26.22
2019-02-16T10:44:14.106Z,23.44
2019-02-16T10:48:17.565Z,23.85
2019-02-16T10:52:09.244Z,23.81
2019-02-16T10:56:13.242Z,23.51
2019-02-16T11:00:16.685Z,23.15
2019-02-16T11:04:13.237Z,21.67
2019-02-16T11:08:16.751Z,22.57
2019-02-16T11:12:20.253Z,23.39
2019-02-16T11:16:23.709Z,21.45
2019-02-16T11:24:35.914Z,20.21
2019-02-16T11:28:33.821Z,20.48
2019-02-16T11:32:59.415Z,20.79
2019-02-16T11:37:02.922Z,19.77
2019-02-16T11:40:53.122Z,20.23
2019-02-16T11:44:56.632Z,19.15
2019-02-16T11:49:00.087Z,20.75
2019-02-16T11:53:03.849Z,20.56
2019-02-16T11:57:07.328Z,22.24
2019-02-16T12:01:06.940Z,21.86
2019-02-16T12:04:59.775Z,22.65
2019-02-16T12:09:03.243Z,22.50
2019-02-16T12:13:06.797Z,22.82
2019-02-16T12:17:10.278Z,23.99
2019-02-16T12:21:03.668Z,24.34
2019-02-16T12:25:07.136Z,25.17
2019-02-16T12:33:12.535Z,22.90
2019-02-16T12:37:16.008Z,22.11
2019-02-16T12:41:19.505Z,22.13
2019-02-16T12:45:11.460Z,20.73
2019-02-16T12:53:04.977Z,21.91
2019-02-16T12:57:08.527Z,23.22
2019-02-16T13:04:42.337Z,21.79
2019-02-16T13:08:45.912Z,20.91
2019-02-16T13:12:49.484Z,19.29
2019-02-16T13:16:52.977Z,19.56
2019-02-16T13:20:44.394Z,18.95
2019-02-16T13:24:47.870Z,17.86
2019-02-16T13:28:51.443Z,19.08
2019-02-16T13:32:54.920Z,19.97
2019-02-16T13:36:47.794Z,19.75
2019-02-16T13:40:51.284Z,20.90
2019-02-16T13:44:55.090Z,19.81
2019-02-16T13:48:47.581Z,19.35
2019-02-16T13:52:38.066Z,20.50
2019-02-16T13:56:35.725Z,19.56
2019-02-16T14:00:39.790Z,19.09
2019-02-16T14:04:30.992Z,18.84
2019-02-16T14:08:34.450Z,18.37
2019-02-16T14:12:37.894Z,19.14
2019-02-16T14:16:41.374Z,20.10
2019-02-16T14:24:48.410Z,21.56
2019-02-16T14:28:35.596Z,20.80
2019-02-16T14:32:20.186Z,19.28
2019-02-16T14:47:49.140Z,17.77
2019-02-16T14:51:33.760Z,18.02
2019-02-16T15:02:51.179Z,17.13
2019-02-16T15:10:39.318Z,19.26
2019-02-16T15:14:23.969Z,19.26
2019-02-16T15:18:08.678Z,20.71
2019-02-16T15:21:53.278Z,19.93
2019-02-16T15:25:37.895Z,20.83
2019-02-16T15:37:10.174Z,21.21
2019-02-16T15:56:15.613Z,23.52
2019-02-16T16:00:00.727Z,24.25
2019-02-16T16:03:41.179Z,25.12
2019-02-16T16:07:25.806Z,25.90
2019-02-16T16:19:58.025Z,28.91
2019-02-16T16:24:01.630Z,29.25
2019-02-16T16:28:05.177Z,31.94
2019-02-16T16:31:59.168Z,31.24
2019-02-16T16:36:01.967Z,32.94
2019-02-16T16:44:35.841Z,35.66
2019-02-16T16:48:39.343Z,36.58
2019-02-16T16:52:43.160Z,35.64
2019-02-16T16:56:48.460Z,38.72
2019-02-16T17:00:52.077Z,39.10
2019-02-16T17:09:02.909Z,39.80
2019-02-16T17:13:06.364Z,39.79
2019-02-16T17:17:09.852Z,40.83
2019-02-16T17:21:13.307Z,41.82
2019-02-16T17:25:18.300Z,42.45
2019-02-16T17:29:22.066Z,41.71
2019-02-16T17:33:25.548Z,42.30
2019-02-16T17:37:41.420Z,43.21
2019-02-16T17:41:29.683Z,42.92
2019-02-16T17:45:33.168Z,44.01
2019-02-16T17:49:36.636Z,45.58
2019-02-16T17:53:40.094Z,45.77
2019-02-16T17:57:43.689Z,46.10
2019-02-16T18:01:47.426Z,46.04
2019-02-16T18:05:50.896Z,46.63
2019-02-16T18:09:54.365Z,46.79
2019-02-16T18:13:57.853Z,46.43
2019-02-16T18:18:01.342Z,48.14
2019-02-16T18:22:05.088Z,48.50
2019-02-16T18:26:08.572Z,48.20
2019-02-16T18:34:17.644Z,49.31
2019-02-16T18:38:02.207Z,50.27
2019-02-16T18:42:05.692Z,50.30
2019-02-16T18:45:44.010Z,50.14
2019-02-16T18:49:39.830Z,50.65
2019-02-16T18:53:45.755Z,50.66
2019-02-16T18:57:49.243Z,50.66
2019-02-16T19:01:41.827Z,50.36
2019-02-16T19:05:45.310Z,49.35
2019-02-16T19:09:49.219Z,50.86
2019-02-16T19:13:52.031Z,52.10
2019-02-16T19:17:55.724Z,52.06
2019-02-16T19:21:59.258Z,51.96
2019-02-16T19:25:59.812Z,52.42
2019-02-16T19:30:03.292Z,53.46
2019-02-16T19:34:06.740Z,53.62
2019-02-16T19:38:10.207Z,52.38
2019-02-16T19:41:54.613Z,53.79
2019-02-16T19:45:58.085Z,53.78
2019-02-16T19:49:43.027Z,53.82
2019-02-16T19:53:46.514Z,53.74
2019-02-16T19:57:49.948Z,53.65
2019-02-16T20:01:53.417Z,54.91
2019-02-16T20:05:56.919Z,53.94
2019-02-16T20:10:00.403Z,53.84
2019-02-16T20:14:04.408Z,54.08
2019-02-16T20:18:07.851Z,55.10
2019-02-16T20:22:11.566Z,55.47
2019-02-16T20:26:15.008Z,55.67
2019-02-16T20:30:18.486Z,55.92
2019-02-16T20:34:22.201Z,55.55
2019-02-16T20:38:26.252Z,54.99
2019-02-16T20:42:22.607Z,56.06
2019-02-16T20:46:14.458Z,55.30
2019-02-16T20:50:18.198Z,56.60
2019-02-16T20:54:21.685Z,57.34
2019-02-16T20:58:25.178Z,57.34
2019-02-16T21:02:17.308Z,57.34
2019-02-16T21:06:20.767Z,57.74
2019-02-16T21:10:24.448Z,58.80
2019-02-16T21:14:27.903Z,58.96
2019-02-16T21:18:31.406Z,59.75
2019-02-16T21:22:35.194Z,59.44
2019-02-16T21:26:39.776Z,60.09
2019-02-16T21:30:43.832Z,60.34
2019-02-16T21:34:47.554Z,61.07
2019-02-16T21:38:51.289Z,61.38
2019-02-16T21:42:54.418Z,60.34
2019-02-16T21:46:50.214Z,60.69
2019-02-16T21:50:53.672Z,61.04
2019-02-16T21:54:42.658Z,61.80
2019-02-16T21:58:46.389Z,62.25
2019-02-16T22:02:49.915Z,62.06
2019-02-16T22:06:53.370Z,62.68
2019-02-16T22:10:56.794Z,61.57
2019-02-16T22:14:41.676Z,62.40
2019-02-16T22:18:26.977Z,62.40
2019-02-16T22:22:11.651Z,62.55
2019-02-16T22:30:00.115Z,62.47
2019-02-16T22:34:41.812Z,62.96
2019-02-16T22:38:19.252Z,63.06
2019-02-16T22:42:04.237Z,63.37
2019-02-16T22:45:49.234Z,63.28
2019-02-16T22:53:07.030Z,61.90
2019-02-16T22:56:51.604Z,62.88
2019-02-16T23:00:42.632Z,63.34
2019-02-16T23:04:27.282Z,63.10
2019-02-16T23:08:12.330Z,63.21
2019-02-16T23:11:57.042Z,63.84
2019-02-16T23:15:41.644Z,63.86
2019-02-16T23:19:26.303Z,62.64
2019-02-16T23:23:11.058Z,62.16
2019-02-16T23:26:56.081Z,62.11
2019-02-16T23:30:41.422Z,60.20
2019-02-16T23:34:26.045Z,61.33
2019-02-16T23:38:03.502Z,60.18
2019-02-16T23:41:48.431Z,58.65
2019-02-16T23:45:33.055Z,59.27
2019-02-16T23:49:17.681Z,59.92
2019-02-16T23:53:02.299Z,62.05
2019-02-16T23:57:06.088Z,60.38
